sensor_id;sensor_type;location;lat;lon;timestamp;P1;durP1;ratioP1;P2;durP2;ratioP2
65896;SDS011;52677;50.898;10.854;2023-02-02T00:00:00;1.83;;;1.33;;
65896;SDS011;52677;50.898;10.854;2023-02-02T00:02:00;2.88;;;1.80;;
65896;SDS011;52677;50.898;10.854;2023-02-02T00:04:01;3.85;;;1.83;;
65896;SDS011;52677;50.898;10.854;2023-02-02T00:06:02;4.18;;;1.92;;
65896;SDS011;52677;50.898;10.854;2023-02-02T00:08:03;3.15;;;1.80;;
65896;SDS011;52677;50.898;10.854;2023-02-02T00:10:03;6.88;;;2.00;;
65896;SDS011;52677;50.898;10.854;2023-02-02T00:12:04;5.38;;;1.75;;
65896;SDS011;52677;50.898;10.854;2023-02-02T00:14:04;4.95;;;2.35;;
65896;SDS011;52677;50.898;10.854;2023-02-02T00:18:25;3.22;;;2.03;;
65896;SDS011;52677;50.898;10.854;2023-02-02T00:20:25;3.30;;;2.05;;
65896;SDS011;52677;50.898;10.854;2023-02-02T00:22:25;2.97;;;1.80;;
65896;SDS011;52677;50.898;10.854;2023-02-02T00:24:27;2.85;;;1.73;;
65896;SDS011;52677;50.898;10.854;2023-02-02T00:26:27;5.82;;;2.10;;
65896;SDS011;52677;50.898;10.854;2023-02-02T00:28:28;5.15;;;2.30;;
65896;SDS011;52677;50.898;10.854;2023-02-02T00:30:28;3.80;;;1.75;;
65896;SDS011;52677;50.898;10.854;2023-02-02T00:32:28;4.22;;;2.03;;
65896;SDS011;52677;50.898;10.854;2023-02-02T00:34:28;4.13;;;2.55;;
65896;SDS011;52677;50.898;10.854;2023-02-02T00:36:29;4.93;;;3.45;;
65896;SDS011;52677;50.898;10.854;2023-02-02T00:38:29;5.90;;;2.45;;
65896;SDS011;52677;50.898;10.854;2023-02-02T00:40:30;8.05;;;2.65;;
65896;SDS011;52677;50.898;10.854;2023-02-02T00:42:31;6.72;;;2.10;;
65896;SDS011;52677;50.898;10.854;2023-02-02T00:44:31;6.22;;;1.90;;
65896;SDS011;52677;50.898;10.854;2023-02-02T00:46:50;5.13;;;2.10;;
65896;SDS011;52677;50.898;10.854;2023-02-02T00:48:50;15.93;;;2.20;;
65896;SDS011;52677;50.898;10.854;2023-02-02T00:50:51;4.05;;;1.73;;
65896;SDS011;52677;50.898;10.854;2023-02-02T00:52:52;5.05;;;1.95;;
65896;SDS011;52677;50.898;10.854;2023-02-02T00:54:52;7.20;;;2.42;;
65896;SDS011;52677;50.898;10.854;2023-02-02T00:56:52;8.25;;;2.13;;
65896;SDS011;52677;50.898;10.854;2023-02-02T00:58:53;7.13;;;1.80;;
65896;SDS011;52677;50.898;10.854;2023-02-02T01:00:53;5.53;;;1.98;;
65896;SDS011;52677;50.898;10.854;2023-02-02T01:02:53;2.95;;;1.70;;
65896;SDS011;52677;50.898;10.854;2023-02-02T01:04:55;4.00;;;1.80;;
65896;SDS011;52677;50.898;10.854;2023-02-02T01:06:55;6.70;;;1.92;;
65896;SDS011;52677;50.898;10.854;2023-02-02T01:08:55;7.57;;;2.58;;
65896;SDS011;52677;50.898;10.854;2023-02-02T01:10:58;3.80;;;1.58;;
65896;SDS011;52677;50.898;10.854;2023-02-02T01:14:59;5.35;;;1.67;;
65896;SDS011;52677;50.898;10.854;2023-02-02T01:17:00;3.95;;;1.48;;
65896;SDS011;52677;50.898;10.854;2023-02-02T01:19:00;4.43;;;2.20;;
65896;SDS011;52677;50.898;10.854;2023-02-02T01:21:05;4.53;;;1.70;;
65896;SDS011;52677;50.898;10.854;2023-02-02T01:23:07;6.22;;;2.00;;
65896;SDS011;52677;50.898;10.854;2023-02-02T01:25:09;8.20;;;2.10;;
65896;SDS011;52677;50.898;10.854;2023-02-02T01:27:09;4.28;;;1.80;;
65896;SDS011;52677;50.898;10.854;2023-02-02T01:29:09;10.05;;;2.10;;
65896;SDS011;52677;50.898;10.854;2023-02-02T01:31:12;3.58;;;2.15;;
65896;SDS011;52677;50.898;10.854;2023-02-02T01:33:14;7.65;;;2.38;;
65896;SDS011;52677;50.898;10.854;2023-02-02T01:35:15;2.47;;;1.48;;
65896;SDS011;52677;50.898;10.854;2023-02-02T01:37:16;8.60;;;2.22;;
65896;SDS011;52677;50.898;10.854;2023-02-02T01:39:16;5.40;;;2.17;;
65896;SDS011;52677;50.898;10.854;2023-02-02T01:41:20;3.58;;;1.90;;
65896;SDS011;52677;50.898;10.854;2023-02-02T01:43:23;5.07;;;1.83;;
65896;SDS011;52677;50.898;10.854;2023-02-02T01:45:42;8.02;;;1.95;;
65896;SDS011;52677;50.898;10.854;2023-02-02T01:47:43;5.78;;;1.90;;
65896;SDS011;52677;50.898;10.854;2023-02-02T01:49:47;4.65;;;2.40;;
65896;SDS011;52677;50.898;10.854;2023-02-02T01:51:49;6.90;;;2.15;;
65896;SDS011;52677;50.898;10.854;2023-02-02T01:53:52;4.00;;;1.90;;
65896;SDS011;52677;50.898;10.854;2023-02-02T01:55:55;5.55;;;2.10;;
65896;SDS011;52677;50.898;10.854;2023-02-02T01:58:17;8.40;;;2.00;;
65896;SDS011;52677;50.898;10.854;2023-02-02T02:00:21;6.28;;;2.15;;
65896;SDS011;52677;50.898;10.854;2023-02-02T02:04:26;8.48;;;2.30;;
65896;SDS011;52677;50.898;10.854;2023-02-02T02:06:29;7.20;;;1.98;;
65896;SDS011;52677;50.898;10.854;2023-02-02T02:08:33;11.27;;;2.95;;
65896;SDS011;52677;50.898;10.854;2023-02-02T02:10:38;5.53;;;2.10;;
65896;SDS011;52677;50.898;10.854;2023-02-02T02:12:38;6.00;;;1.67;;
65896;SDS011;52677;50.898;10.854;2023-02-02T02:14:38;7.78;;;2.20;;
65896;SDS011;52677;50.898;10.854;2023-02-02T02:17:10;3.35;;;1.90;;
65896;SDS011;52677;50.898;10.854;2023-02-02T02:22:13;8.55;;;2.20;;
65896;SDS011;52677;50.898;10.854;2023-02-02T02:24:41;6.22;;;2.17;;
65896;SDS011;52677;50.898;10.854;2023-02-02T02:36:53;4.93;;;1.75;;
65896;SDS011;52677;50.898;10.854;2023-02-02T02:39:09;4.97;;;1.52;;
65896;SDS011;52677;50.898;10.854;2023-02-02T02:41:12;4.70;;;1.60;;
65896;SDS011;52677;50.898;10.854;2023-02-02T02:43:19;4.68;;;1.52;;
65896;SDS011;52677;50.898;10.854;2023-02-02T02:45:29;6.40;;;1.95;;
65896;SDS011;52677;50.898;10.854;2023-02-02T02:47:32;2.90;;;1.48;;
65896;SDS011;52677;50.898;10.854;2023-02-02T02:49:40;4.15;;;1.77;;
65896;SDS011;52677;50.898;10.854;2023-02-02T02:53:45;5.13;;;1.60;;
65896;SDS011;52677;50.898;10.854;2023-02-02T02:55:53;3.35;;;1.52;;
65896;SDS011;52677;50.898;10.854;2023-02-02T02:58:11;2.30;;;1.27;;
65896;SDS011;52677;50.898;10.854;2023-02-02T03:00:32;8.65;;;1.77;;
65896;SDS011;52677;50.898;10.854;2023-02-02T03:05:06;4.28;;;1.45;;
65896;SDS011;52677;50.898;10.854;2023-02-02T03:07:27;4.20;;;1.50;;
65896;SDS011;52677;50.898;10.854;2023-02-02T03:09:32;5.13;;;1.35;;
65896;SDS011;52677;50.898;10.854;2023-02-02T03:11:39;8.20;;;1.70;;
65896;SDS011;52677;50.898;10.854;2023-02-02T03:13:40;4.82;;;1.88;;
65896;SDS011;52677;50.898;10.854;2023-02-02T03:15:45;7.23;;;1.60;;
65896;SDS011;52677;50.898;10.854;2023-02-02T03:17:46;10.35;;;2.00;;
65896;SDS011;52677;50.898;10.854;2023-02-02T03:19:48;4.22;;;1.40;;
65896;SDS011;52677;50.898;10.854;2023-02-02T03:21:49;6.43;;;2.15;;
65896;SDS011;52677;50.898;10.854;2023-02-02T03:23:49;4.70;;;2.00;;
65896;SDS011;52677;50.898;10.854;2023-02-02T03:25:49;9.88;;;1.40;;
65896;SDS011;52677;50.898;10.854;2023-02-02T03:27:50;6.85;;;1.80;;
65896;SDS011;52677;50.898;10.854;2023-02-02T03:29:52;8.18;;;1.67;;
65896;SDS011;52677;50.898;10.854;2023-02-02T03:31:52;8.27;;;1.90;;
65896;SDS011;52677;50.898;10.854;2023-02-02T03:33:53;8.63;;;2.22;;
65896;SDS011;52677;50.898;10.854;2023-02-02T03:35:54;9.98;;;1.95;;
65896;SDS011;52677;50.898;10.854;2023-02-02T03:37:54;2.72;;;1.27;;
65896;SDS011;52677;50.898;10.854;2023-02-02T03:39:54;8.05;;;1.60;;
65896;SDS011;52677;50.898;10.854;2023-02-02T03:41:55;4.38;;;1.35;;
65896;SDS011;52677;50.898;10.854;2023-02-02T03:43:55;8.70;;;1.60;;
65896;SDS011;52677;50.898;10.854;2023-02-02T03:45:59;5.75;;;1.70;;
65896;SDS011;52677;50.898;10.854;2023-02-02T03:48:03;4.32;;;1.30;;
65896;SDS011;52677;50.898;10.854;2023-02-02T03:50:05;5.47;;;1.42;;
65896;SDS011;52677;50.898;10.854;2023-02-02T03:52:06;4.07;;;1.65;;
65896;SDS011;52677;50.898;10.854;2023-02-02T03:54:07;5.00;;;1.48;;
65896;SDS011;52677;50.898;10.854;2023-02-02T03:56:07;9.40;;;1.60;;
65896;SDS011;52677;50.898;10.854;2023-02-02T03:58:08;5.20;;;1.58;;
65896;SDS011;52677;50.898;10.854;2023-02-02T04:00:08;7.18;;;1.50;;
65896;SDS011;52677;50.898;10.854;2023-02-02T04:02:09;6.78;;;1.52;;
65896;SDS011;52677;50.898;10.854;2023-02-02T04:04:09;8.05;;;1.70;;
65896;SDS011;52677;50.898;10.854;2023-02-02T04:06:10;7.45;;;2.05;;
65896;SDS011;52677;50.898;10.854;2023-02-02T04:08:10;7.63;;;1.92;;
65896;SDS011;52677;50.898;10.854;2023-02-02T04:10:10;4.72;;;1.33;;
65896;SDS011;52677;50.898;10.854;2023-02-02T04:12:10;5.57;;;1.65;;
65896;SDS011;52677;50.898;10.854;2023-02-02T04:14:11;7.88;;;1.33;;
65896;SDS011;52677;50.898;10.854;2023-02-02T04:16:11;7.88;;;2.38;;
65896;SDS011;52677;50.898;10.854;2023-02-02T04:18:12;10.40;;;2.47;;
65896;SDS011;52677;50.898;10.854;2023-02-02T04:20:12;4.65;;;1.30;;
65896;SDS011;52677;50.898;10.854;2023-02-02T04:22:12;10.48;;;1.85;;
65896;SDS011;52677;50.898;10.854;2023-02-02T04:24:13;6.57;;;1.73;;
65896;SDS011;52677;50.898;10.854;2023-02-02T04:26:14;4.63;;;1.50;;
65896;SDS011;52677;50.898;10.854;2023-02-02T04:28:14;9.95;;;1.60;;
65896;SDS011;52677;50.898;10.854;2023-02-02T04:30:14;6.22;;;1.50;;
65896;SDS011;52677;50.898;10.854;2023-02-02T04:32:15;5.95;;;1.50;;
65896;SDS011;52677;50.898;10.854;2023-02-02T04:34:16;8.38;;;2.03;;
65896;SDS011;52677;50.898;10.854;2023-02-02T04:36:16;9.63;;;2.20;;
65896;SDS011;52677;50.898;10.854;2023-02-02T04:38:17;7.07;;;1.65;;
65896;SDS011;52677;50.898;10.854;2023-02-02T04:40:18;3.13;;;1.23;;
65896;SDS011;52677;50.898;10.854;2023-02-02T04:42:18;7.40;;;1.90;;
65896;SDS011;52677;50.898;10.854;2023-02-02T04:44:18;6.65;;;2.05;;
65896;SDS011;52677;50.898;10.854;2023-02-02T04:46:19;5.85;;;1.33;;
65896;SDS011;52677;50.898;10.854;2023-02-02T04:48:19;3.17;;;1.30;;
65896;SDS011;52677;50.898;10.854;2023-02-02T04:50:19;8.60;;;1.63;;
65896;SDS011;52677;50.898;10.854;2023-02-02T04:52:20;5.90;;;1.30;;
65896;SDS011;52677;50.898;10.854;2023-02-02T04:54:20;8.63;;;1.75;;
65896;SDS011;52677;50.898;10.854;2023-02-02T04:56:20;6.43;;;1.67;;
65896;SDS011;52677;50.898;10.854;2023-02-02T04:58:21;7.20;;;1.52;;
65896;SDS011;52677;50.898;10.854;2023-02-02T05:00:22;5.15;;;1.98;;
65896;SDS011;52677;50.898;10.854;2023-02-02T05:02:22;5.07;;;1.95;;
65896;SDS011;52677;50.898;10.854;2023-02-02T05:04:22;2.80;;;1.52;;
65896;SDS011;52677;50.898;10.854;2023-02-02T05:06:23;4.00;;;1.35;;
65896;SDS011;52677;50.898;10.854;2023-02-02T05:08:23;7.25;;;2.00;;
65896;SDS011;52677;50.898;10.854;2023-02-02T05:10:24;3.97;;;1.48;;
65896;SDS011;52677;50.898;10.854;2023-02-02T05:12:24;5.20;;;1.35;;
65896;SDS011;52677;50.898;10.854;2023-02-02T05:14:24;6.78;;;1.25;;
65896;SDS011;52677;50.898;10.854;2023-02-02T05:16:25;6.00;;;1.80;;
65896;SDS011;52677;50.898;10.854;2023-02-02T05:18:25;5.40;;;1.40;;
65896;SDS011;52677;50.898;10.854;2023-02-02T05:20:25;3.78;;;1.63;;
65896;SDS011;52677;50.898;10.854;2023-02-02T05:22:26;5.93;;;2.08;;
65896;SDS011;52677;50.898;10.854;2023-02-02T05:24:26;7.57;;;2.00;;
65896;SDS011;52677;50.898;10.854;2023-02-02T05:26:26;8.20;;;3.53;;
65896;SDS011;52677;50.898;10.854;2023-02-02T05:28:27;13.82;;;5.68;;
65896;SDS011;52677;50.898;10.854;2023-02-02T05:30:28;15.27;;;6.22;;
65896;SDS011;52677;50.898;10.854;2023-02-02T05:32:28;14.02;;;5.70;;
65896;SDS011;52677;50.898;10.854;2023-02-02T05:34:28;14.57;;;2.75;;
65896;SDS011;52677;50.898;10.854;2023-02-02T05:36:29;7.45;;;2.50;;
65896;SDS011;52677;50.898;10.854;2023-02-02T05:38:29;6.78;;;4.28;;
65896;SDS011;52677;50.898;10.854;2023-02-02T05:40:30;9.10;;;3.40;;
65896;SDS011;52677;50.898;10.854;2023-02-02T05:42:30;5.07;;;2.50;;
65896;SDS011;52677;50.898;10.854;2023-02-02T05:44:31;8.35;;;3.60;;
65896;SDS011;52677;50.898;10.854;2023-02-02T05:46:31;6.45;;;3.95;;
65896;SDS011;52677;50.898;10.854;2023-02-02T05:48:31;8.02;;;3.42;;
65896;SDS011;52677;50.898;10.854;2023-02-02T05:50:32;8.07;;;2.75;;
65896;SDS011;52677;50.898;10.854;2023-02-02T05:52:32;5.97;;;2.97;;
65896;SDS011;52677;50.898;10.854;2023-02-02T05:54:34;5.25;;;2.10;;
65896;SDS011;52677;50.898;10.854;2023-02-02T05:56:34;5.70;;;2.38;;
65896;SDS011;52677;50.898;10.854;2023-02-02T05:58:35;6.38;;;2.10;;
65896;SDS011;52677;50.898;10.854;2023-02-02T06:00:35;5.63;;;2.10;;
65896;SDS011;52677;50.898;10.854;2023-02-02T06:02:35;7.93;;;2.22;;
65896;SDS011;52677;50.898;10.854;2023-02-02T06:04:36;10.05;;;3.65;;
65896;SDS011;52677;50.898;10.854;2023-02-02T06:06:36;10.40;;;4.93;;
65896;SDS011;52677;50.898;10.854;2023-02-02T06:08:38;5.20;;;2.63;;
65896;SDS011;52677;50.898;10.854;2023-02-02T06:10:39;6.30;;;1.95;;
65896;SDS011;52677;50.898;10.854;2023-02-02T06:12:40;8.02;;;1.80;;
65896;SDS011;52677;50.898;10.854;2023-02-02T06:14:40;9.75;;;2.35;;
65896;SDS011;52677;50.898;10.854;2023-02-02T06:16:41;9.07;;;2.17;;
65896;SDS011;52677;50.898;10.854;2023-02-02T06:18:41;9.40;;;2.35;;
65896;SDS011;52677;50.898;10.854;2023-02-02T06:20:41;8.27;;;2.65;;
65896;SDS011;52677;50.898;10.854;2023-02-02T06:22:42;10.55;;;3.83;;
65896;SDS011;52677;50.898;10.854;2023-02-02T06:24:42;14.05;;;7.00;;
65896;SDS011;52677;50.898;10.854;2023-02-02T06:26:43;13.55;;;5.50;;
65896;SDS011;52677;50.898;10.854;2023-02-02T06:28:47;9.23;;;2.10;;
65896;SDS011;52677;50.898;10.854;2023-02-02T06:30:49;7.00;;;2.28;;
65896;SDS011;52677;50.898;10.854;2023-02-02T06:32:49;5.90;;;2.30;;
65896;SDS011;52677;50.898;10.854;2023-02-02T06:34:49;3.15;;;1.52;;
65896;SDS011;52677;50.898;10.854;2023-02-02T06:36:50;7.03;;;1.92;;
65896;SDS011;52677;50.898;10.854;2023-02-02T06:38:51;5.90;;;1.95;;
65896;SDS011;52677;50.898;10.854;2023-02-02T06:40:53;5.18;;;1.38;;
65896;SDS011;52677;50.898;10.854;2023-02-02T06:42:57;6.40;;;2.00;;
65896;SDS011;52677;50.898;10.854;2023-02-02T06:44:58;7.20;;;2.10;;
65896;SDS011;52677;50.898;10.854;2023-02-02T06:46:59;4.03;;;1.60;;
65896;SDS011;52677;50.898;10.854;2023-02-02T06:48:59;6.03;;;2.15;;
65896;SDS011;52677;50.898;10.854;2023-02-02T06:50:59;8.63;;;2.00;;
65896;SDS011;52677;50.898;10.854;2023-02-02T06:53:00;10.20;;;2.30;;
65896;SDS011;52677;50.898;10.854;2023-02-02T06:55:00;7.40;;;1.98;;
65896;SDS011;52677;50.898;10.854;2023-02-02T06:57:00;4.88;;;1.60;;
65896;SDS011;52677;50.898;10.854;2023-02-02T06:59:01;5.15;;;1.92;;
65896;SDS011;52677;50.898;10.854;2023-02-02T07:01:04;7.25;;;2.63;;
65896;SDS011;52677;50.898;10.854;2023-02-02T07:03:06;9.25;;;3.33;;
65896;SDS011;52677;50.898;10.854;2023-02-02T07:05:07;7.82;;;2.92;;
65896;SDS011;52677;50.898;10.854;2023-02-02T07:07:07;9.35;;;4.18;;
65896;SDS011;52677;50.898;10.854;2023-02-02T07:09:08;4.15;;;1.92;;
65896;SDS011;52677;50.898;10.854;2023-02-02T07:11:08;6.18;;;2.45;;
65896;SDS011;52677;50.898;10.854;2023-02-02T07:13:09;4.80;;;2.33;;
65896;SDS011;52677;50.898;10.854;2023-02-02T07:15:10;3.55;;;1.63;;
65896;SDS011;52677;50.898;10.854;2023-02-02T07:17:10;3.13;;;2.05;;
65896;SDS011;52677;50.898;10.854;2023-02-02T07:19:11;5.10;;;2.55;;
65896;SDS011;52677;50.898;10.854;2023-02-02T07:21:15;3.47;;;1.40;;
65896;SDS011;52677;50.898;10.854;2023-02-02T07:23:20;3.90;;;1.83;;
65896;SDS011;52677;50.898;10.854;2023-02-02T07:25:21;4.30;;;1.55;;
65896;SDS011;52677;50.898;10.854;2023-02-02T07:27:21;5.50;;;2.47;;
65896;SDS011;52677;50.898;10.854;2023-02-02T07:29:21;4.13;;;1.92;;
65896;SDS011;52677;50.898;10.854;2023-02-02T07:31:23;4.93;;;2.00;;
65896;SDS011;52677;50.898;10.854;2023-02-02T07:33:25;2.58;;;1.70;;
65896;SDS011;52677;50.898;10.854;2023-02-02T07:35:26;3.83;;;2.15;;
65896;SDS011;52677;50.898;10.854;2023-02-02T07:37:26;2.88;;;1.75;;
65896;SDS011;52677;50.898;10.854;2023-02-02T07:39:26;4.65;;;1.95;;
65896;SDS011;52677;50.898;10.854;2023-02-02T07:41:27;4.40;;;2.00;;
65896;SDS011;52677;50.898;10.854;2023-02-02T07:43:27;2.42;;;1.27;;
65896;SDS011;52677;50.898;10.854;2023-02-02T07:45:27;2.70;;;1.50;;
65896;SDS011;52677;50.898;10.854;2023-02-02T07:47:28;2.17;;;1.70;;
65896;SDS011;52677;50.898;10.854;2023-02-02T07:49:28;1.88;;;1.63;;
65896;SDS011;52677;50.898;10.854;2023-02-02T07:51:28;5.35;;;1.73;;
65896;SDS011;52677;50.898;10.854;2023-02-02T07:53:29;2.35;;;1.30;;
65896;SDS011;52677;50.898;10.854;2023-02-02T07:55:29;2.05;;;1.20;;
65896;SDS011;52677;50.898;10.854;2023-02-02T07:57:30;3.65;;;1.50;;
65896;SDS011;52677;50.898;10.854;2023-02-02T07:59:30;5.90;;;2.28;;
65896;SDS011;52677;50.898;10.854;2023-02-02T08:01:30;4.55;;;1.92;;
65896;SDS011;52677;50.898;10.854;2023-02-02T08:03:31;3.80;;;2.17;;
65896;SDS011;52677;50.898;10.854;2023-02-02T08:05:31;2.88;;;1.80;;
65896;SDS011;52677;50.898;10.854;2023-02-02T08:07:33;6.47;;;2.90;;
65896;SDS011;52677;50.898;10.854;2023-02-02T08:09:34;5.22;;;0.90;;
65896;SDS011;52677;50.898;10.854;2023-02-02T08:11:35;4.03;;;1.40;;
65896;SDS011;52677;50.898;10.854;2023-02-02T08:13:36;4.70;;;1.80;;
65896;SDS011;52677;50.898;10.854;2023-02-02T08:15:37;2.55;;;1.55;;
65896;SDS011;52677;50.898;10.854;2023-02-02T08:17:37;4.10;;;2.08;;
65896;SDS011;52677;50.898;10.854;2023-02-02T08:19:38;5.75;;;1.30;;
65896;SDS011;52677;50.898;10.854;2023-02-02T08:21:38;3.55;;;1.50;;
65896;SDS011;52677;50.898;10.854;2023-02-02T08:23:40;1.55;;;0.90;;
65896;SDS011;52677;50.898;10.854;2023-02-02T08:25:41;5.55;;;1.50;;
65896;SDS011;52677;50.898;10.854;2023-02-02T08:27:42;2.78;;;1.00;;
65896;SDS011;52677;50.898;10.854;2023-02-02T08:29:42;2.92;;;1.20;;
65896;SDS011;52677;50.898;10.854;2023-02-02T08:31:43;4.38;;;1.58;;
65896;SDS011;52677;50.898;10.854;2023-02-02T08:33:43;5.47;;;1.50;;
65896;SDS011;52677;50.898;10.854;2023-02-02T08:35:44;3.50;;;0.90;;
65896;SDS011;52677;50.898;10.854;2023-02-02T08:37:47;2.17;;;0.80;;
65896;SDS011;52677;50.898;10.854;2023-02-02T08:39:48;1.10;;;1.00;;
65896;SDS011;52677;50.898;10.854;2023-02-02T08:41:50;1.85;;;1.00;;
65896;SDS011;52677;50.898;10.854;2023-02-02T08:43:54;1.65;;;1.00;;
65896;SDS011;52677;50.898;10.854;2023-02-02T08:45:54;2.35;;;1.10;;
65896;SDS011;52677;50.898;10.854;2023-02-02T08:47:54;3.25;;;1.17;;
65896;SDS011;52677;50.898;10.854;2023-02-02T08:49:54;6.43;;;1.35;;
65896;SDS011;52677;50.898;10.854;2023-02-02T08:51:55;3.47;;;0.90;;
65896;SDS011;52677;50.898;10.854;2023-02-02T08:53:55;3.90;;;1.25;;
65896;SDS011;52677;50.898;10.854;2023-02-02T08:57:59;4.70;;;1.20;;
65896;SDS011;52677;50.898;10.854;2023-02-02T08:59:59;1.52;;;1.05;;
65896;SDS011;52677;50.898;10.854;2023-02-02T09:01:59;3.83;;;1.10;;
65896;SDS011;52677;50.898;10.854;2023-02-02T09:04:06;2.88;;;0.82;;
65896;SDS011;52677;50.898;10.854;2023-02-02T09:06:14;1.40;;;1.02;;
65896;SDS011;52677;50.898;10.854;2023-02-02T09:08:16;1.45;;;0.90;;
65896;SDS011;52677;50.898;10.854;2023-02-02T09:10:16;7.82;;;2.03;;
65896;SDS011;52677;50.898;10.854;2023-02-02T09:12:16;2.88;;;1.10;;
65896;SDS011;52677;50.898;10.854;2023-02-02T09:14:17;1.80;;;1.00;;
65896;SDS011;52677;50.898;10.854;2023-02-02T09:16:17;3.70;;;1.20;;
65896;SDS011;52677;50.898;10.854;2023-02-02T09:18:18;3.45;;;1.33;;
65896;SDS011;52677;50.898;10.854;2023-02-02T09:20:18;5.93;;;2.60;;
65896;SDS011;52677;50.898;10.854;2023-02-02T09:22:19;17.05;;;6.88;;
65896;SDS011;52677;50.898;10.854;2023-02-02T09:24:20;56.35;;;18.65;;
65896;SDS011;52677;50.898;10.854;2023-02-02T09:26:24;34.10;;;12.02;;
65896;SDS011;52677;50.898;10.854;2023-02-02T09:28:26;10.98;;;5.10;;
65896;SDS011;52677;50.898;10.854;2023-02-02T09:30:26;6.88;;;3.78;;
65896;SDS011;52677;50.898;10.854;2023-02-02T09:32:26;4.95;;;2.58;;
65896;SDS011;52677;50.898;10.854;2023-02-02T09:34:26;8.27;;;4.03;;
65896;SDS011;52677;50.898;10.854;2023-02-02T09:36:27;6.15;;;3.35;;
65896;SDS011;52677;50.898;10.854;2023-02-02T09:38:27;5.10;;;2.20;;
65896;SDS011;52677;50.898;10.854;2023-02-02T09:40:28;3.65;;;2.63;;
65896;SDS011;52677;50.898;10.854;2023-02-02T09:42:39;2.97;;;2.28;;
65896;SDS011;52677;50.898;10.854;2023-02-02T09:44:54;6.90;;;3.92;;
65896;SDS011;52677;50.898;10.854;2023-02-02T09:49:21;5.15;;;4.15;;
65896;SDS011;52677;50.898;10.854;2023-02-02T09:51:34;3.35;;;1.60;;
65896;SDS011;52677;50.898;10.854;2023-02-02T09:53:46;2.47;;;1.60;;
65896;SDS011;52677;50.898;10.854;2023-02-02T09:55:49;4.85;;;1.70;;
65896;SDS011;52677;50.898;10.854;2023-02-02T10:00:23;3.40;;;2.10;;
65896;SDS011;52677;50.898;10.854;2023-02-02T10:02:41;3.70;;;2.22;;
65896;SDS011;52677;50.898;10.854;2023-02-02T10:04:45;8.85;;;3.40;;
65896;SDS011;52677;50.898;10.854;2023-02-02T10:06:53;7.38;;;3.20;;
65896;SDS011;52677;50.898;10.854;2023-02-02T10:09:02;6.30;;;2.42;;
65896;SDS011;52677;50.898;10.854;2023-02-02T10:11:26;8.95;;;2.53;;
65896;SDS011;52677;50.898;10.854;2023-02-02T10:13:36;6.53;;;2.85;;
65896;SDS011;52677;50.898;10.854;2023-02-02T10:18:15;5.43;;;3.10;;
65896;SDS011;52677;50.898;10.854;2023-02-02T10:22:48;8.98;;;3.83;;
65896;SDS011;52677;50.898;10.854;2023-02-02T10:24:49;7.95;;;3.58;;
65896;SDS011;52677;50.898;10.854;2023-02-02T10:26:54;11.65;;;4.00;;
65896;SDS011;52677;50.898;10.854;2023-02-02T10:29:12;7.88;;;3.70;;
65896;SDS011;52677;50.898;10.854;2023-02-02T10:31:30;5.60;;;3.22;;
65896;SDS011;52677;50.898;10.854;2023-02-02T10:33:42;8.52;;;4.88;;
65896;SDS011;52677;50.898;10.854;2023-02-02T10:38:19;5.55;;;2.80;;
65896;SDS011;52677;50.898;10.854;2023-02-02T10:45:26;2.38;;;1.95;;
65896;SDS011;52677;50.898;10.854;2023-02-02T10:47:32;6.72;;;3.70;;
65896;SDS011;52677;50.898;10.854;2023-02-02T10:49:34;20.30;;;11.20;;
65896;SDS011;52677;50.898;10.854;2023-02-02T10:51:36;8.85;;;5.75;;
65896;SDS011;52677;50.898;10.854;2023-02-02T10:53:37;14.35;;;8.77;;
65896;SDS011;52677;50.898;10.854;2023-02-02T10:55:59;7.03;;;4.78;;
65896;SDS011;52677;50.898;10.854;2023-02-02T11:02:23;3.25;;;2.80;;
65896;SDS011;52677;50.898;10.854;2023-02-02T11:04:23;4.32;;;2.40;;
65896;SDS011;52677;50.898;10.854;2023-02-02T11:06:42;3.03;;;1.88;;
65896;SDS011;52677;50.898;10.854;2023-02-02T11:08:49;9.80;;;5.57;;
65896;SDS011;52677;50.898;10.854;2023-02-02T11:11:07;4.65;;;2.72;;
65896;SDS011;52677;50.898;10.854;2023-02-02T11:13:27;12.77;;;5.18;;
65896;SDS011;52677;50.898;10.854;2023-02-02T11:15:30;6.63;;;4.13;;
65896;SDS011;52677;50.898;10.854;2023-02-02T11:17:30;5.93;;;3.38;;
65896;SDS011;52677;50.898;10.854;2023-02-02T11:19:33;18.02;;;6.70;;
65896;SDS011;52677;50.898;10.854;2023-02-02T11:21:34;5.03;;;2.90;;
65896;SDS011;52677;50.898;10.854;2023-02-02T11:23:37;6.25;;;3.90;;
65896;SDS011;52677;50.898;10.854;2023-02-02T11:25:38;12.10;;;3.58;;
65896;SDS011;52677;50.898;10.854;2023-02-02T11:27:39;6.82;;;4.25;;
65896;SDS011;52677;50.898;10.854;2023-02-02T11:29:43;3.95;;;2.92;;
65896;SDS011;52677;50.898;10.854;2023-02-02T11:31:46;6.25;;;3.75;;
65896;SDS011;52677;50.898;10.854;2023-02-02T11:33:47;5.95;;;3.05;;
65896;SDS011;52677;50.898;10.854;2023-02-02T11:35:59;16.38;;;8.15;;
65896;SDS011;52677;50.898;10.854;2023-02-02T11:38:08;5.55;;;3.30;;
65896;SDS011;52677;50.898;10.854;2023-02-02T11:42:27;3.03;;;2.10;;
65896;SDS011;52677;50.898;10.854;2023-02-02T11:44:28;2.25;;;1.73;;
65896;SDS011;52677;50.898;10.854;2023-02-02T11:46:31;3.45;;;2.15;;
65896;SDS011;52677;50.898;10.854;2023-02-02T11:48:37;3.13;;;2.15;;
65896;SDS011;52677;50.898;10.854;2023-02-02T11:50:44;4.57;;;2.55;;
65896;SDS011;52677;50.898;10.854;2023-02-02T11:52:47;3.78;;;2.25;;
65896;SDS011;52677;50.898;10.854;2023-02-02T11:54:49;2.15;;;1.80;;
65896;SDS011;52677;50.898;10.854;2023-02-02T11:56:52;3.25;;;2.00;;
65896;SDS011;52677;50.898;10.854;2023-02-02T11:58:55;2.53;;;1.77;;
65896;SDS011;52677;50.898;10.854;2023-02-02T12:00:59;2.50;;;1.80;;
65896;SDS011;52677;50.898;10.854;2023-02-02T12:03:01;3.08;;;1.98;;
65896;SDS011;52677;50.898;10.854;2023-02-02T12:07:21;4.28;;;2.45;;
65896;SDS011;52677;50.898;10.854;2023-02-02T12:09:23;2.47;;;1.92;;
65896;SDS011;52677;50.898;10.854;2023-02-02T12:11:34;3.78;;;2.70;;
65896;SDS011;52677;50.898;10.854;2023-02-02T12:13:39;7.77;;;4.27;;
65896;SDS011;52677;50.898;10.854;2023-02-02T12:16:04;7.60;;;3.95;;
65896;SDS011;52677;50.898;10.854;2023-02-02T12:20:44;3.75;;;2.10;;
65896;SDS011;52677;50.898;10.854;2023-02-02T12:27:36;3.35;;;1.85;;
65896;SDS011;52677;50.898;10.854;2023-02-02T12:29:47;3.33;;;2.00;;
65896;SDS011;52677;50.898;10.854;2023-02-02T12:34:31;3.95;;;2.55;;
65896;SDS011;52677;50.898;10.854;2023-02-02T12:36:49;3.03;;;2.10;;
65896;SDS011;52677;50.898;10.854;2023-02-02T12:41:21;4.97;;;2.65;;
65896;SDS011;52677;50.898;10.854;2023-02-02T12:43:46;5.90;;;3.30;;
65896;SDS011;52677;50.898;10.854;2023-02-02T12:48:03;6.00;;;2.92;;
65896;SDS011;52677;50.898;10.854;2023-02-02T12:50:20;4.40;;;2.53;;
65896;SDS011;52677;50.898;10.854;2023-02-02T12:57:11;4.97;;;2.63;;
65896;SDS011;52677;50.898;10.854;2023-02-02T13:01:54;4.35;;;1.77;;
65896;SDS011;52677;50.898;10.854;2023-02-02T13:06:48;6.13;;;2.90;;
65896;SDS011;52677;50.898;10.854;2023-02-02T13:11:12;7.70;;;2.13;;
65896;SDS011;52677;50.898;10.854;2023-02-02T13:13:32;3.65;;;2.10;;
65896;SDS011;52677;50.898;10.854;2023-02-02T13:15:44;4.90;;;1.80;;
65896;SDS011;52677;50.898;10.854;2023-02-02T13:17:50;2.55;;;1.70;;
65896;SDS011;52677;50.898;10.854;2023-02-02T13:19:54;3.35;;;2.20;;
65896;SDS011;52677;50.898;10.854;2023-02-02T13:21:59;3.38;;;2.20;;
65896;SDS011;52677;50.898;10.854;2023-02-02T13:24:02;4.90;;;2.85;;
65896;SDS011;52677;50.898;10.854;2023-02-02T13:26:10;7.05;;;2.50;;
65896;SDS011;52677;50.898;10.854;2023-02-02T13:28:21;2.58;;;1.73;;